createdAt,value
2023-05-14T00:00:01.624Z,12.23
2023-05-14T00:02:34.620Z,12.22
2023-05-14T00:05:08.602Z,12.24
2023-05-14T00:07:41.614Z,12.23
2023-05-14T00:10:14.556Z,12.23
2023-05-14T00:12:47.507Z,12.21
2023-05-14T00:15:22.198Z,12.22
2023-05-14T00:17:55.287Z,12.22
2023-05-14T00:20:28.327Z,12.24
2023-05-14T00:23:01.529Z,12.24
2023-05-14T00:25:34.459Z,12.25
2023-05-14T00:28:07.424Z,12.25
2023-05-14T00:30:41.810Z,12.24
2023-05-14T00:33:14.863Z,12.25
2023-05-14T00:35:47.829Z,12.24
2023-05-14T00:38:20.775Z,12.28
2023-05-14T00:40:53.712Z,12.20
2023-05-14T00:43:26.671Z,12.14
2023-05-14T00:46:01.411Z,12.12
2023-05-14T00:48:34.446Z,12.11
2023-05-14T00:51:09.081Z,12.12
2023-05-14T00:53:42.695Z,12.12
2023-05-14T00:56:16.967Z,12.10
2023-05-14T00:58:49.919Z,12.07
2023-05-14T01:01:24.290Z,12.07
2023-05-14T01:03:58.184Z,12.04
2023-05-14T01:06:41.734Z,12.03
2023-05-14T01:09:25.360Z,12.00
2023-05-14T01:12:04.724Z,11.99
2023-05-14T01:14:44.891Z,12.00
2023-05-14T01:17:22.774Z,11.96
2023-05-14T01:19:57.756Z,11.94
2023-05-14T01:22:32.027Z,11.88
2023-05-14T01:25:05.878Z,11.85
2023-05-14T01:27:49.895Z,11.89
2023-05-14T01:30:31.067Z,11.88
2023-05-14T01:33:09.326Z,11.90
2023-05-14T01:35:43.003Z,11.91
2023-05-14T01:38:20.144Z,11.92
2023-05-14T01:40:54.950Z,11.92
2023-05-14T01:43:28.679Z,11.89
2023-05-14T01:46:01.715Z,11.87
2023-05-14T01:48:34.642Z,11.91
2023-05-14T01:51:07.682Z,11.90
2023-05-14T01:53:42.032Z,11.89
2023-05-14T01:56:14.994Z,11.89
2023-05-14T01:58:48.025Z,11.89
2023-05-14T02:01:21.121Z,11.88
2023-05-14T02:03:54.129Z,11.83
2023-05-14T02:06:27.075Z,11.78
2023-05-14T02:09:01.394Z,11.77
2023-05-14T02:11:34.362Z,11.76
2023-05-14T02:14:07.306Z,11.75
2023-05-14T02:16:40.581Z,11.71
2023-05-14T02:19:13.641Z,11.70
2023-05-14T02:21:46.633Z,11.71
2023-05-14T02:24:21.378Z,11.68
2023-05-14T02:26:54.444Z,11.67
2023-05-14T02:29:27.385Z,11.68
2023-05-14T02:32:00.406Z,11.71
2023-05-14T02:34:34.375Z,11.71
2023-05-14T02:37:07.346Z,11.72
2023-05-14T02:39:41.646Z,11.72
2023-05-14T02:42:14.590Z,11.70
2023-05-14T02:44:47.523Z,11.71
2023-05-14T02:47:20.638Z,11.69
2023-05-14T02:49:53.757Z,11.69
2023-05-14T02:52:26.685Z,11.67
2023-05-14T02:55:01.052Z,11.69
2023-05-14T02:57:34.024Z,11.67
2023-05-14T03:00:09.108Z,11.65
2023-05-14T03:02:43.526Z,11.68
2023-05-14T03:05:17.012Z,11.70
2023-05-14T03:07:51.240Z,11.73
2023-05-14T03:10:25.834Z,11.74
2023-05-14T03:12:58.927Z,11.76
2023-05-14T03:15:31.907Z,11.79
2023-05-14T03:18:05.085Z,11.77
2023-05-14T03:20:38.093Z,11.79
2023-05-14T03:23:11.102Z,11.82
2023-05-14T03:25:45.389Z,11.80
2023-05-14T03:28:18.321Z,11.72
2023-05-14T03:30:51.457Z,11.66
2023-05-14T03:33:24.606Z,11.63
2023-05-14T03:35:57.760Z,11.64
2023-05-14T03:38:30.673Z,11.64
2023-05-14T03:41:05.147Z,11.66
2023-05-14T03:43:38.137Z,11.69
2023-05-14T03:46:11.178Z,11.72
2023-05-14T03:48:44.164Z,11.76
2023-05-14T03:51:17.180Z,11.77
2023-05-14T03:53:50.140Z,11.79
2023-05-14T03:56:24.490Z,11.77
2023-05-14T03:58:57.523Z,11.77
2023-05-14T04:01:30.506Z,11.78
2023-05-14T04:04:03.607Z,11.75
2023-05-14T04:06:37.359Z,11.76
2023-05-14T04:09:11.457Z,11.80
2023-05-14T04:11:46.152Z,11.81
2023-05-14T04:14:19.213Z,11.90
2023-05-14T04:16:52.182Z,11.90
2023-05-14T04:19:25.199Z,11.86
2023-05-14T04:21:58.143Z,11.88
2023-05-14T04:24:31.086Z,11.86
2023-05-14T04:27:06.253Z,11.88
2023-05-14T04:29:39.195Z,11.86
2023-05-14T04:32:12.244Z,11.87
2023-05-14T04:34:46.830Z,11.87
2023-05-14T04:37:19.908Z,11.89
2023-05-14T04:39:52.924Z,11.95
2023-05-14T04:42:27.213Z,11.99
2023-05-14T04:45:00.424Z,11.93
2023-05-14T04:47:33.577Z,11.92
2023-05-14T04:50:09.261Z,11.92
2023-05-14T04:52:42.240Z,11.89
2023-05-14T04:55:15.200Z,11.93
2023-05-14T04:57:49.457Z,11.90
2023-05-14T05:00:23.352Z,11.88
2023-05-14T05:02:56.693Z,11.87
2023-05-14T05:05:29.658Z,11.85
2023-05-14T05:08:02.694Z,11.81
2023-05-14T05:10:35.909Z,11.82
2023-05-14T05:13:10.210Z,12.02
2023-05-14T05:15:43.338Z,11.91
2023-05-14T05:18:16.381Z,11.80
2023-05-14T05:20:49.418Z,11.84
2023-05-14T05:23:22.441Z,11.89
2023-05-14T05:25:55.476Z,11.90
2023-05-14T05:28:29.974Z,11.95
2023-05-14T05:31:03.217Z,11.88
2023-05-14T05:33:36.627Z,11.98
2023-05-14T05:36:10.341Z,11.93
2023-05-14T05:38:43.474Z,11.98
2023-05-14T05:42:34.850Z,12.07
2023-05-14T05:45:09.310Z,12.12
2023-05-14T05:47:42.303Z,12.22
2023-05-14T05:50:15.464Z,12.32
2023-05-14T05:52:48.583Z,12.35
2023-05-14T05:55:21.861Z,12.52
2023-05-14T05:59:46.521Z,12.48
2023-05-14T06:04:34.629Z,12.55
2023-05-14T06:07:08.301Z,12.58
2023-05-14T06:09:42.001Z,12.69
2023-05-14T06:13:36.144Z,12.74
2023-05-14T06:16:09.987Z,12.83
2023-05-14T06:18:43.874Z,12.94
2023-05-14T06:21:17.598Z,13.02
2023-05-14T06:23:51.312Z,13.13
2023-05-14T06:27:52.575Z,13.18
2023-05-14T06:31:13.909Z,13.40
2023-05-14T06:35:25.349Z,13.42
2023-05-14T06:37:59.014Z,13.45
2023-05-14T06:40:33.064Z,13.43
2023-05-14T06:43:17.926Z,13.53
2023-05-14T06:45:51.850Z,13.60
2023-05-14T06:48:27.838Z,13.65
2023-05-14T06:52:17.799Z,13.73
2023-05-14T06:54:50.853Z,13.71
2023-05-14T06:57:23.796Z,13.67
2023-05-14T06:59:57.426Z,13.71
2023-05-14T07:02:30.483Z,13.96
2023-05-14T07:05:03.704Z,14.01
2023-05-14T07:07:38.061Z,14.02
2023-05-14T07:10:11.490Z,14.06
2023-05-14T07:12:45.171Z,14.19
2023-05-14T07:15:18.359Z,14.30
2023-05-14T07:17:51.379Z,14.30
2023-05-14T07:20:25.013Z,14.38
2023-05-14T07:22:59.733Z,14.49
2023-05-14T07:25:33.206Z,14.63
2023-05-14T07:28:06.373Z,14.63
2023-05-14T07:30:39.417Z,14.69
2023-05-14T07:33:12.384Z,14.70
2023-05-14T07:35:45.401Z,14.80
2023-05-14T07:38:21.106Z,14.92
2023-05-14T07:40:54.372Z,14.98
2023-05-14T07:43:27.430Z,15.15
2023-05-14T07:46:00.378Z,15.24
2023-05-14T07:48:33.479Z,15.47
2023-05-14T07:51:06.562Z,15.86
2023-05-14T07:53:41.210Z,15.85
2023-05-14T07:56:14.199Z,16.18
2023-05-14T07:58:47.165Z,16.71
2023-05-14T08:01:20.768Z,17.43
2023-05-14T08:03:53.910Z,18.04
2023-05-14T08:06:27.570Z,18.25
2023-05-14T08:09:01.904Z,18.35
2023-05-14T08:11:35.004Z,18.35
2023-05-14T08:14:08.053Z,18.21
2023-05-14T08:16:41.091Z,18.43
2023-05-14T08:19:14.592Z,18.28
2023-05-14T08:21:47.719Z,18.19
2023-05-14T08:24:22.082Z,18.21
2023-05-14T08:26:56.209Z,18.12
2023-05-14T08:29:29.436Z,17.47
2023-05-14T08:32:08.737Z,17.39
2023-05-14T08:34:52.954Z,17.69
2023-05-14T08:37:26.085Z,17.67
2023-05-14T08:40:00.411Z,17.60
2023-05-14T08:42:33.718Z,17.82
2023-05-14T08:45:11.722Z,18.01
2023-05-14T08:47:48.987Z,17.77
2023-05-14T08:50:23.641Z,17.40
2023-05-14T08:52:57.168Z,16.85
2023-05-14T08:55:33.387Z,16.94
2023-05-14T08:58:06.422Z,17.00
2023-05-14T09:00:39.509Z,17.07
2023-05-14T09:03:13.046Z,16.65
2023-05-14T09:05:47.602Z,16.69
2023-05-14T09:08:21.210Z,16.89
2023-05-14T09:10:55.509Z,17.46
2023-05-14T09:13:28.504Z,16.99
2023-05-14T09:16:02.628Z,17.00
2023-05-14T09:18:37.865Z,17.21
2023-05-14T09:21:10.956Z,17.36
2023-05-14T09:23:45.380Z,17.44
2023-05-14T09:26:19.834Z,17.56
2023-05-14T09:28:56.711Z,17.44
2023-05-14T09:31:31.406Z,17.30
2023-05-14T09:34:04.422Z,17.18
2023-05-14T09:36:37.419Z,17.25
2023-05-14T09:39:10.510Z,17.52
2023-05-14T09:41:44.827Z,17.42
2023-05-14T09:44:17.878Z,17.61
2023-05-14T09:46:51.820Z,17.54
2023-05-14T09:49:24.880Z,17.36
2023-05-14T09:51:58.000Z,17.35
2023-05-14T09:54:33.125Z,17.75
2023-05-14T09:57:07.679Z,17.64
2023-05-14T09:59:41.074Z,18.13
2023-05-14T10:02:23.335Z,18.04
2023-05-14T10:04:59.037Z,17.75
2023-05-14T10:07:40.443Z,17.87
2023-05-14T10:10:20.057Z,17.88
2023-05-14T10:12:58.798Z,17.97
2023-05-14T10:15:39.007Z,18.45
2023-05-14T10:18:19.061Z,18.65
2023-05-14T10:21:02.701Z,18.48
2023-05-14T10:23:37.780Z,18.57
2023-05-14T10:26:12.140Z,18.88
2023-05-14T10:28:47.026Z,18.77
2023-05-14T10:31:24.333Z,18.74
2023-05-14T10:33:59.746Z,18.78
2023-05-14T10:36:33.122Z,18.98
2023-05-14T10:39:06.117Z,19.11
2023-05-14T10:41:40.353Z,19.03
2023-05-14T10:44:15.370Z,19.05
2023-05-14T10:46:48.518Z,18.83
2023-05-14T10:49:36.127Z,18.71
2023-05-14T10:52:19.462Z,18.86
2023-05-14T10:54:54.485Z,18.99
2023-05-14T10:57:30.668Z,18.63
2023-05-14T11:00:08.888Z,18.69
2023-05-14T11:02:43.885Z,18.97
2023-05-14T11:05:18.097Z,18.89
2023-05-14T11:07:52.477Z,18.81
2023-05-14T11:10:28.315Z,19.04
2023-05-14T11:13:01.308Z,19.21
2023-05-14T11:15:36.060Z,19.15
2023-05-14T11:18:11.694Z,19.34
2023-05-14T11:20:44.782Z,18.82
2023-05-14T11:23:17.700Z,19.08
2023-05-14T11:25:50.826Z,18.94
2023-05-14T11:28:24.276Z,19.17
2023-05-14T11:30:59.167Z,19.32
2023-05-14T11:33:32.665Z,19.51
2023-05-14T11:36:06.792Z,19.75
2023-05-14T11:38:50.504Z,19.70
2023-05-14T11:41:23.601Z,19.69
2023-05-14T11:43:56.919Z,19.65
2023-05-14T11:46:31.419Z,19.82
2023-05-14T11:49:06.588Z,19.69
2023-05-14T11:51:39.576Z,19.80
2023-05-14T11:54:15.407Z,19.84
2023-05-14T11:56:52.413Z,20.00
2023-05-14T11:59:27.677Z,20.01
2023-05-14T12:02:02.722Z,19.76
2023-05-14T12:04:35.840Z,19.90
2023-05-14T12:07:12.152Z,19.50
2023-05-14T12:09:49.231Z,19.46
2023-05-14T12:12:23.760Z,19.35
2023-05-14T12:14:56.693Z,19.41
2023-05-14T12:17:31.001Z,19.35
2023-05-14T12:20:04.481Z,18.77
2023-05-14T12:22:37.586Z,18.83
2023-05-14T12:25:14.348Z,19.13
2023-05-14T12:27:47.484Z,19.01
2023-05-14T12:30:22.117Z,18.52
2023-05-14T12:32:56.695Z,18.55
2023-05-14T12:35:30.351Z,18.52
2023-05-14T12:38:03.578Z,18.42
2023-05-14T12:40:36.548Z,18.63
2023-05-14T12:43:09.540Z,18.68
2023-05-14T12:45:42.507Z,18.79
2023-05-14T12:48:16.879Z,18.86
2023-05-14T12:50:50.711Z,18.74
2023-05-14T12:53:23.656Z,19.00
2023-05-14T12:55:56.706Z,19.09
2023-05-14T12:58:29.859Z,19.33
2023-05-14T13:01:02.901Z,19.05
2023-05-14T13:03:37.304Z,19.21
2023-05-14T13:06:10.699Z,19.22
2023-05-14T13:08:43.667Z,19.09
2023-05-14T13:11:16.693Z,19.12
2023-05-14T13:13:49.659Z,19.18
2023-05-14T13:16:22.778Z,18.65
2023-05-14T13:18:57.233Z,18.90
2023-05-14T13:21:31.264Z,19.06
2023-05-14T13:24:04.668Z,19.27
2023-05-14T13:26:38.154Z,19.41
2023-05-14T13:29:11.249Z,19.53
2023-05-14T13:31:44.213Z,19.29
2023-05-14T13:34:18.545Z,19.41
2023-05-14T13:36:51.511Z,19.51
2023-05-14T13:39:27.028Z,19.53
2023-05-14T13:42:01.077Z,19.28
2023-05-14T13:44:34.049Z,19.07
2023-05-14T13:47:07.722Z,19.02
2023-05-14T13:49:42.033Z,18.53
2023-05-14T13:52:15.006Z,18.61
2023-05-14T13:54:48.326Z,18.49
2023-05-14T13:57:21.446Z,18.61
2023-05-14T13:59:54.492Z,18.78
2023-05-14T14:02:27.580Z,18.82
2023-05-14T14:05:02.097Z,18.95
2023-05-14T14:07:35.108Z,19.30
2023-05-14T14:10:10.275Z,19.36
2023-05-14T14:12:43.262Z,19.24
2023-05-14T14:15:16.650Z,19.21
2023-05-14T14:17:49.786Z,18.99
2023-05-14T14:20:24.090Z,18.92
2023-05-14T14:22:57.139Z,18.92
2023-05-14T14:25:30.217Z,19.18
2023-05-14T14:28:03.232Z,19.12
2023-05-14T14:30:36.222Z,18.97
2023-05-14T14:33:09.277Z,18.95
2023-05-14T14:35:43.660Z,18.57
2023-05-14T14:38:16.631Z,18.72
2023-05-14T14:40:49.674Z,18.51
2023-05-14T14:43:22.813Z,18.14
2023-05-14T14:45:56.226Z,18.34
2023-05-14T14:48:33.941Z,18.63
2023-05-14T14:51:09.374Z,18.78
2023-05-14T14:53:42.645Z,18.02
2023-05-14T14:56:15.608Z,18.06
2023-05-14T14:58:48.617Z,18.34
2023-05-14T15:01:22.740Z,18.71
2023-05-14T15:03:55.800Z,18.63
2023-05-14T15:06:30.173Z,18.78
2023-05-14T15:09:03.311Z,18.72
2023-05-14T15:11:37.510Z,18.56
2023-05-14T15:14:10.814Z,18.44
2023-05-14T15:16:43.838Z,18.62
2023-05-14T15:19:17.238Z,18.68
2023-05-14T15:21:51.829Z,18.58
2023-05-14T15:24:26.100Z,18.41
2023-05-14T15:26:59.073Z,18.47
2023-05-14T15:29:32.984Z,18.43
2023-05-14T15:32:07.063Z,18.47
2023-05-14T15:34:40.014Z,18.01
2023-05-14T15:37:14.402Z,18.16
2023-05-14T15:39:47.402Z,18.13
2023-05-14T15:42:20.877Z,17.92
2023-05-14T15:44:53.886Z,17.97
2023-05-14T15:47:26.948Z,18.10
2023-05-14T15:50:00.286Z,18.08
2023-05-14T15:52:35.771Z,18.20
2023-05-14T15:55:09.803Z,18.07
2023-05-14T15:57:42.831Z,18.10
2023-05-14T16:00:17.536Z,18.20
2023-05-14T16:02:50.717Z,18.21
2023-05-14T16:05:23.764Z,18.22
2023-05-14T16:07:58.189Z,18.29
2023-05-14T16:10:31.304Z,18.00
2023-05-14T16:13:04.361Z,17.91
2023-05-14T16:15:37.408Z,17.88
2023-05-14T16:18:10.495Z,17.84
2023-05-14T16:20:43.575Z,17.64
2023-05-14T16:23:18.123Z,17.70
2023-05-14T16:25:51.338Z,17.62
2023-05-14T16:28:24.445Z,17.66
2023-05-14T16:30:57.556Z,17.70
2023-05-14T16:33:30.739Z,17.64
2023-05-14T16:36:04.626Z,17.54
2023-05-14T16:38:48.192Z,17.55
2023-05-14T16:41:30.133Z,17.46
2023-05-14T16:44:03.514Z,17.53
2023-05-14T16:46:36.707Z,17.39
2023-05-14T16:49:09.749Z,17.52
2023-05-14T16:51:43.883Z,17.46
2023-05-14T16:54:18.269Z,17.43
2023-05-14T16:56:51.969Z,17.45
2023-05-14T16:59:25.142Z,17.40
2023-05-14T17:01:58.324Z,17.30
2023-05-14T17:04:32.838Z,17.20
2023-05-14T17:07:06.660Z,17.20
2023-05-14T17:09:41.050Z,17.17
2023-05-14T17:12:14.099Z,17.20
2023-05-14T17:14:47.120Z,17.07
2023-05-14T17:17:20.204Z,17.18
2023-05-14T17:19:53.229Z,17.20
2023-05-14T17:22:26.346Z,17.17
2023-05-14T17:25:01.014Z,17.18
2023-05-14T17:27:34.098Z,17.03
2023-05-14T17:30:08.995Z,17.04
2023-05-14T17:32:42.023Z,17.18
2023-05-14T17:35:16.276Z,16.99
2023-05-14T17:37:49.406Z,17.04
2023-05-14T17:40:23.795Z,17.05
2023-05-14T17:42:56.911Z,16.99
2023-05-14T17:45:39.319Z,16.92
2023-05-14T17:48:16.000Z,16.84
2023-05-14T17:50:49.017Z,16.86
2023-05-14T17:53:22.092Z,16.83
2023-05-14T17:55:56.534Z,16.86
2023-05-14T17:58:29.589Z,16.82
2023-05-14T18:01:02.762Z,16.64
2023-05-14T18:03:35.893Z,16.55
2023-05-14T18:06:09.656Z,16.61
2023-05-14T18:08:42.834Z,16.56
2023-05-14T18:11:17.203Z,16.44
2023-05-14T18:13:50.198Z,16.48
2023-05-14T18:16:23.326Z,16.45
2023-05-14T18:18:56.540Z,16.40
2023-05-14T18:21:29.599Z,16.34
2023-05-14T18:24:02.643Z,16.26
2023-05-14T18:26:37.056Z,16.15
2023-05-14T18:29:10.131Z,16.06
2023-05-14T18:31:43.438Z,15.95
2023-05-14T18:34:16.959Z,15.85
2023-05-14T18:36:50.095Z,15.76
2023-05-14T18:39:23.086Z,15.68
2023-05-14T18:41:57.512Z,15.58
2023-05-14T18:44:30.896Z,15.49
2023-05-14T18:47:03.968Z,15.43
2023-05-14T18:49:38.628Z,15.35
2023-05-14T18:52:11.646Z,15.25
2023-05-14T18:54:44.638Z,15.14
2023-05-14T18:57:19.041Z,15.05
2023-05-14T18:59:52.066Z,14.97
2023-05-14T19:02:25.206Z,14.91
2023-05-14T19:04:58.303Z,14.83
2023-05-14T19:07:32.134Z,14.75
2023-05-14T19:10:06.515Z,14.65
2023-05-14T19:12:41.100Z,14.56
2023-05-14T19:15:14.149Z,14.50
2023-05-14T19:17:47.188Z,14.47
2023-05-14T19:20:20.367Z,14.42
2023-05-14T19:22:53.356Z,14.36
2023-05-14T19:25:26.859Z,14.32
2023-05-14T19:28:03.635Z,14.28
2023-05-14T19:30:36.752Z,14.26
2023-05-14T19:33:09.829Z,14.28
2023-05-14T19:35:42.856Z,14.22
2023-05-14T19:38:15.971Z,14.19
2023-05-14T19:40:49.045Z,14.20
2023-05-14T19:43:23.830Z,14.17
2023-05-14T19:45:56.849Z,14.20
2023-05-14T19:48:31.295Z,14.17
2023-05-14T19:51:04.505Z,14.12
2023-05-14T19:53:37.567Z,14.04
2023-05-14T19:56:10.896Z,14.00
2023-05-14T19:58:45.720Z,13.95
2023-05-14T20:01:19.231Z,13.93
2023-05-14T20:03:52.274Z,13.92
2023-05-14T20:06:25.699Z,13.91
2023-05-14T20:08:58.689Z,13.91
2023-05-14T20:11:31.679Z,13.94
2023-05-14T20:14:06.127Z,14.18
2023-05-14T20:16:39.162Z,14.01
2023-05-14T20:19:12.549Z,13.74
2023-05-14T20:21:45.596Z,13.75
2023-05-14T20:24:18.625Z,13.66
2023-05-14T20:26:51.742Z,13.62
2023-05-14T20:29:26.112Z,13.64
2023-05-14T20:31:59.180Z,13.56
2023-05-14T20:34:32.222Z,13.54
2023-05-14T20:37:06.703Z,13.49
2023-05-14T20:39:39.743Z,13.47
2023-05-14T20:42:12.819Z,13.53
2023-05-14T20:44:48.378Z,13.48
2023-05-14T20:47:24.340Z,13.46
2023-05-14T20:49:57.421Z,13.43
2023-05-14T20:52:30.660Z,13.35
2023-05-14T20:55:03.764Z,13.23
2023-05-14T20:57:36.854Z,13.14
2023-05-14T21:00:13.343Z,13.11
2023-05-14T21:02:46.544Z,13.04
2023-05-14T21:05:20.684Z,13.03
2023-05-14T21:07:53.720Z,12.97
2023-05-14T21:10:26.850Z,12.93
2023-05-14T21:13:00.305Z,12.89
2023-05-14T21:15:34.779Z,12.87
2023-05-14T21:18:07.904Z,12.69
2023-05-14T21:20:41.809Z,12.69
2023-05-14T21:23:14.829Z,12.72
2023-05-14T21:25:47.878Z,12.74
2023-05-14T21:28:20.904Z,12.73
2023-05-14T21:30:55.245Z,12.76
2023-05-14T21:33:28.310Z,12.81
2023-05-14T21:36:01.364Z,12.93
2023-05-14T21:38:34.945Z,13.01
2023-05-14T21:41:08.049Z,12.85
2023-05-14T21:43:41.503Z,12.78
2023-05-14T21:46:16.301Z,12.78
2023-05-14T21:48:49.471Z,12.78
2023-05-14T21:51:22.555Z,12.77
2023-05-14T21:53:55.579Z,12.83
2023-05-14T21:56:28.670Z,12.87
2023-05-14T21:59:01.658Z,12.95
2023-05-14T22:01:46.050Z,12.96
2023-05-14T22:04:28.933Z,12.88
2023-05-14T22:07:02.111Z,12.88
2023-05-14T22:09:35.123Z,12.90
2023-05-14T22:12:09.125Z,12.87
2023-05-14T22:14:42.166Z,12.85
2023-05-14T22:17:16.655Z,12.85
2023-05-14T22:19:49.662Z,12.84
2023-05-14T22:22:22.728Z,12.86
2023-05-14T22:24:56.327Z,12.88
2023-05-14T22:27:29.422Z,12.88
2023-05-14T22:30:02.461Z,12.84
2023-05-14T22:32:36.807Z,12.84
2023-05-14T22:35:11.211Z,12.83
2023-05-14T22:37:44.404Z,12.89
2023-05-14T22:40:17.474Z,12.90
2023-05-14T22:42:50.469Z,12.85
2023-05-14T22:45:23.689Z,12.79
2023-05-14T22:47:58.264Z,12.79
2023-05-14T22:50:31.327Z,12.77
2023-05-14T22:53:04.325Z,12.73
2023-05-14T22:55:37.361Z,12.73
2023-05-14T22:58:10.373Z,12.71
2023-05-14T23:00:43.378Z,12.71
2023-05-14T23:03:17.757Z,12.75
2023-05-14T23:05:52.002Z,12.68
2023-05-14T23:08:25.041Z,12.67
2023-05-14T23:10:58.046Z,12.60
2023-05-14T23:13:31.056Z,12.59
2023-05-14T23:16:04.682Z,12.61
2023-05-14T23:18:39.189Z,12.60
2023-05-14T23:21:13.664Z,12.58
2023-05-14T23:23:46.697Z,12.53
2023-05-14T23:26:19.711Z,12.43
2023-05-14T23:28:52.710Z,12.38
2023-05-14T23:31:25.830Z,12.31
2023-05-14T23:34:00.259Z,12.18
2023-05-14T23:36:33.513Z,11.97
2023-05-14T23:39:06.635Z,11.99
2023-05-14T23:41:39.650Z,12.01
2023-05-14T23:44:12.721Z,12.04
2023-05-14T23:46:45.730Z,12.05
2023-05-14T23:49:20.359Z,12.02
2023-05-14T23:51:53.371Z,12.03
2023-05-14T23:54:26.361Z,12.06
2023-05-14T23:56:59.438Z,12.10
2023-05-14T23:59:32.596Z,12.11
